Terminal Aerodrome Forecast
Issued by NWS

Home | Current Version | Previous Version | Text Only | Print | Product List | Glossary On
Versions: 1 2 3 4 5 6 7 8 9 10 11 12 13 14 15 16 17 18 19 20 21
879
FTUS43 KDLH 221550 AAB
TAFHYR
TAF AMD
KHYR 221550Z 2216/2312 04005KT P6SM OVC005
     FM230400 07010KT P6SM SCT015 OVC030=

USA.gov is the U.S. government's official web portal to all federal, state and local government web resources and services.